createdAt,value
2017-09-04T00:01:39.805Z,97956.32
2017-09-04T00:04:07.324Z,97951.50
2017-09-04T00:06:34.830Z,97953.28
2017-09-04T00:09:02.331Z,97955.38
2017-09-04T00:11:29.847Z,97953.52
2017-09-04T00:13:57.367Z,97950.22
2017-09-04T00:16:24.871Z,97949.20
2017-09-04T00:18:52.372Z,97950.87
2017-09-04T00:21:19.923Z,97954.09
2017-09-04T00:23:47.436Z,97949.79
2017-09-04T00:26:14.955Z,97958.50
2017-09-04T00:28:42.451Z,97954.19
2017-09-04T00:31:09.964Z,97959.16
2017-09-04T00:33:37.471Z,97954.89
2017-09-04T00:36:04.990Z,97952.52
2017-09-04T00:38:32.501Z,97952.77
2017-09-04T00:41:00.008Z,97949.50
2017-09-04T00:43:27.512Z,97947.56
2017-09-04T00:45:55.024Z,97951.98
2017-09-04T00:48:22.525Z,97947.66
2017-09-04T00:50:50.024Z,97947.24
2017-09-04T00:53:17.560Z,97946.29
2017-09-04T00:55:45.096Z,97949.09
2017-09-04T00:58:12.620Z,97952.83
2017-09-04T01:00:41.368Z,97955.41
2017-09-04T01:03:08.890Z,97957.56
2017-09-04T01:05:36.410Z,97964.81
2017-09-04T01:08:03.971Z,97959.27
2017-09-04T01:10:31.462Z,97958.67
2017-09-04T01:12:58.959Z,97956.06
2017-09-04T01:15:26.495Z,97962.92
2017-09-04T01:17:53.994Z,97961.62
2017-09-04T01:20:21.499Z,97964.48
2017-09-04T01:22:49.008Z,97959.02
2017-09-04T01:25:16.511Z,97959.51
2017-09-04T01:27:44.006Z,97965.67
2017-09-04T01:30:11.585Z,97956.39
2017-09-04T01:32:39.110Z,97955.81
2017-09-04T01:35:06.613Z,97956.97
2017-09-04T01:37:34.127Z,97955.52
2017-09-04T01:40:01.620Z,97959.16
2017-09-04T01:42:29.150Z,97951.07
2017-09-04T01:44:56.651Z,97951.20
2017-09-04T01:47:24.167Z,97953.41
2017-09-04T01:49:51.670Z,97952.47
2017-09-04T01:52:19.241Z,97947.50
2017-09-04T01:54:46.752Z,97951.55
2017-09-04T01:57:14.269Z,97954.31
2017-09-04T01:59:41.773Z,97950.66
2017-09-04T02:02:09.277Z,97952.73
2017-09-04T02:04:36.803Z,97952.48
2017-09-04T02:07:04.315Z,97947.39
2017-09-04T02:09:31.835Z,97948.45
2017-09-04T02:11:59.362Z,97948.28
2017-09-04T02:14:26.863Z,97949.21
2017-09-04T02:16:54.404Z,97946.77
2017-09-04T02:19:21.943Z,97944.81
2017-09-04T02:21:49.454Z,97942.58
2017-09-04T02:24:16.983Z,97938.45
2017-09-04T02:26:44.516Z,97943.92
2017-09-04T02:29:12.048Z,97944.81
2017-09-04T02:31:39.590Z,97943.06
2017-09-04T02:34:07.120Z,97937.35
2017-09-04T02:36:34.628Z,97936.89
2017-09-04T02:39:02.174Z,97926.66
2017-09-04T02:41:29.694Z,97934.09
2017-09-04T02:43:57.227Z,97925.38
2017-09-04T02:46:24.745Z,97927.31
2017-09-04T02:48:52.266Z,97932.66
2017-09-04T02:51:19.798Z,97931.77
2017-09-04T02:53:47.306Z,97928.71
2017-09-04T02:56:14.850Z,97935.37
2017-09-04T02:58:42.363Z,97930.75
2017-09-04T03:01:09.886Z,97929.30
2017-09-04T03:03:37.406Z,97929.34
2017-09-04T03:06:04.918Z,97922.27
2017-09-04T03:08:32.454Z,97920.66
2017-09-04T03:10:59.972Z,97927.48
2017-09-04T03:13:27.508Z,97928.47
2017-09-04T03:15:55.020Z,97927.20
2017-09-04T03:18:22.539Z,97920.01
2017-09-04T03:20:50.077Z,97924.52
2017-09-04T03:23:17.597Z,97930.47
2017-09-04T03:25:45.123Z,97931.43
2017-09-04T03:28:12.637Z,97931.02
2017-09-04T03:30:40.173Z,97935.02
2017-09-04T03:33:07.730Z,97927.93
2017-09-04T03:35:35.250Z,97930.53
2017-09-04T03:38:02.767Z,97934.57
2017-09-04T03:40:30.280Z,97935.63
2017-09-04T03:42:57.793Z,97935.86
2017-09-04T03:45:25.313Z,97932.48
2017-09-04T03:47:52.820Z,97935.66
2017-09-04T03:50:20.327Z,97939.86
2017-09-04T03:52:47.859Z,97943.23
2017-09-04T03:55:15.381Z,97948.27
2017-09-04T03:57:42.892Z,97949.34
2017-09-04T04:00:10.409Z,97952.26
2017-09-04T04:02:37.919Z,97946.27
2017-09-04T04:05:05.444Z,97946.84
2017-09-04T04:07:32.977Z,97943.09
2017-09-04T04:10:00.478Z,97951.06
2017-09-04T04:12:28.000Z,97947.19
2017-09-04T04:14:55.618Z,97943.86
2017-09-04T04:17:23.139Z,97948.80
2017-09-04T04:19:50.659Z,97957.81
2017-09-04T04:22:18.240Z,97955.81
2017-09-04T04:24:45.746Z,97957.30
2017-09-04T04:27:13.266Z,97957.31
2017-09-04T04:29:40.799Z,97960.05
2017-09-04T04:32:08.334Z,97955.78
2017-09-04T04:34:35.914Z,97950.76
2017-09-04T04:37:03.423Z,97957.64
2017-09-04T04:39:30.950Z,97962.22
2017-09-04T04:41:58.479Z,97957.79
2017-09-04T04:44:26.019Z,97965.84
2017-09-04T04:46:53.531Z,97967.59
2017-09-04T04:49:21.049Z,97967.06
2017-09-04T04:51:48.574Z,97965.72
2017-09-04T04:54:16.101Z,97968.98
2017-09-04T04:56:43.629Z,97969.80
2017-09-04T04:59:11.141Z,97968.06
2017-09-04T05:01:38.652Z,97973.41
2017-09-04T05:04:06.163Z,97984.56
2017-09-04T05:06:33.686Z,97980.38
2017-09-04T05:09:01.201Z,97979.25
2017-09-04T05:11:28.708Z,97985.22
2017-09-04T05:13:56.204Z,97987.77
2017-09-04T05:16:23.702Z,97985.82
2017-09-04T05:18:51.211Z,97996.42
2017-09-04T05:21:18.715Z,97996.30
2017-09-04T05:23:46.384Z,97995.66
2017-09-04T05:26:13.892Z,97997.92
2017-09-04T05:28:41.504Z,98000.36
2017-09-04T05:31:09.003Z,98000.00
2017-09-04T05:33:36.519Z,98001.48
2017-09-04T05:36:04.033Z,98005.91
2017-09-04T05:38:31.538Z,98010.77
2017-09-04T05:40:59.056Z,98008.99
2017-09-04T05:43:26.562Z,98007.56
2017-09-04T05:45:54.063Z,98008.16
2017-09-04T05:48:21.564Z,98016.02
2017-09-04T05:50:49.068Z,98016.91
2017-09-04T05:53:16.597Z,98017.66
2017-09-04T05:55:44.119Z,98016.14
2017-09-04T05:58:11.711Z,98019.27
2017-09-04T06:00:39.256Z,98023.34
2017-09-04T06:03:06.768Z,98023.03
2017-09-04T06:05:34.276Z,98023.84
2017-09-04T06:08:01.780Z,98028.86
2017-09-04T06:10:29.276Z,98021.85
2017-09-04T06:12:56.784Z,98030.27
2017-09-04T06:15:24.316Z,98032.92
2017-09-04T06:17:51.836Z,98025.95
2017-09-04T06:20:19.337Z,98027.78
2017-09-04T06:22:46.856Z,98035.88
2017-09-04T06:25:14.395Z,98038.08
2017-09-04T06:27:41.926Z,98036.44
2017-09-04T06:30:09.442Z,98031.95
2017-09-04T06:32:36.950Z,98036.40
2017-09-04T06:35:04.473Z,98038.03
2017-09-04T06:37:32.028Z,98044.77
2017-09-04T06:39:59.554Z,98039.16
2017-09-04T06:42:27.087Z,98032.56
2017-09-04T06:44:54.607Z,98038.31
2017-09-04T06:47:22.183Z,98033.72
2017-09-04T06:49:49.716Z,98043.13
2017-09-04T06:52:17.227Z,98038.05
2017-09-04T06:54:44.745Z,98044.55
2017-09-04T06:57:12.258Z,98041.30
2017-09-04T06:59:39.770Z,98052.03
2017-09-04T07:02:07.297Z,98049.25
2017-09-04T07:04:34.856Z,98046.77
2017-09-04T07:07:02.382Z,98046.88
2017-09-04T07:09:29.897Z,98050.58
2017-09-04T07:11:57.523Z,98055.47
2017-09-04T07:14:25.053Z,98051.96
2017-09-04T07:16:52.578Z,98047.54
2017-09-04T07:19:20.084Z,98054.11
2017-09-04T07:21:47.622Z,98045.31
2017-09-04T07:24:15.154Z,98052.73
2017-09-04T07:26:42.660Z,98053.66
2017-09-04T07:29:10.182Z,98054.31
2017-09-04T07:31:39.057Z,98056.93
2017-09-04T07:34:06.806Z,98066.95
2017-09-04T07:36:34.319Z,98061.02
2017-09-04T07:39:01.841Z,98060.72
2017-09-04T07:41:29.396Z,98055.30
2017-09-04T07:43:56.907Z,98060.33
2017-09-04T07:46:24.427Z,98061.34
2017-09-04T07:48:51.967Z,98067.27
2017-09-04T07:51:19.489Z,98063.52
2017-09-04T07:53:47.057Z,98059.86
2017-09-04T07:56:14.588Z,98063.67
2017-09-04T07:58:42.115Z,98066.06
2017-09-04T08:01:09.626Z,98067.15
2017-09-04T08:03:37.130Z,98063.80
2017-09-04T08:06:04.642Z,98072.89
2017-09-04T08:08:32.164Z,98071.27
2017-09-04T08:10:59.676Z,98073.25
2017-09-04T08:13:27.195Z,98070.55
2017-09-04T08:15:54.785Z,98069.89
2017-09-04T08:18:22.660Z,98070.12
2017-09-04T08:20:50.207Z,98065.69
2017-09-04T08:23:17.708Z,98063.46
2017-09-04T08:25:45.239Z,98061.22
2017-09-04T08:28:12.774Z,98060.64
2017-09-04T08:30:40.293Z,98058.05
2017-09-04T08:33:07.811Z,98061.62
2017-09-04T08:35:35.348Z,98060.73
2017-09-04T08:38:02.867Z,98055.89
2017-09-04T08:40:30.379Z,98059.20
2017-09-04T08:42:57.943Z,98056.23
2017-09-04T08:45:25.450Z,98060.10
2017-09-04T08:47:53.004Z,98065.49
2017-09-04T08:50:20.519Z,98067.39
2017-09-04T08:52:48.034Z,98072.72
2017-09-04T08:55:15.535Z,98072.70
2017-09-04T08:57:43.068Z,98080.42
2017-09-04T09:00:10.646Z,98071.47
2017-09-04T09:02:38.154Z,98077.60
2017-09-04T09:05:05.655Z,98085.06
2017-09-04T09:07:33.172Z,98074.28
2017-09-04T09:10:00.683Z,98076.39
2017-09-04T09:12:28.192Z,98078.58
2017-09-04T09:14:55.704Z,98081.92
2017-09-04T09:17:23.276Z,98094.00
2017-09-04T09:19:50.905Z,98090.43
2017-09-04T09:22:18.598Z,98098.88
2017-09-04T09:24:46.233Z,98090.58
2017-09-04T09:27:13.765Z,98103.54
2017-09-04T09:29:41.457Z,98098.33
2017-09-04T09:32:08.971Z,98095.81
2017-09-04T09:34:36.499Z,98099.16
2017-09-04T09:37:04.012Z,98103.55
2017-09-04T09:39:31.537Z,98104.66
2017-09-04T09:41:59.048Z,98107.66
2017-09-04T09:44:26.560Z,98096.68
2017-09-04T09:46:54.079Z,98112.64
2017-09-04T09:49:21.599Z,98115.08
2017-09-04T09:51:49.103Z,98114.56
2017-09-04T09:54:16.612Z,98119.19
2017-09-04T09:56:44.159Z,98118.50
2017-09-04T09:59:11.680Z,98124.83
2017-09-04T10:01:39.216Z,98120.75
2017-09-04T10:04:06.760Z,98121.13
2017-09-04T10:06:34.274Z,98118.55
2017-09-04T10:09:01.814Z,98116.72
2017-09-04T10:11:29.493Z,98117.13
2017-09-04T10:13:57.019Z,98121.72
2017-09-04T10:16:24.544Z,98125.77
2017-09-04T10:18:52.415Z,98125.17
2017-09-04T10:21:20.063Z,98131.60
2017-09-04T10:23:47.597Z,98132.73
2017-09-04T10:26:15.115Z,98131.40
2017-09-04T10:28:42.652Z,98134.66
2017-09-04T12:41:27.331Z,98127.89
2017-09-04T12:43:56.604Z,98127.63
2017-09-04T12:46:26.142Z,98118.72
2017-09-04T12:48:53.651Z,98125.16
2017-09-04T12:51:21.175Z,98135.80
2017-09-04T12:53:48.728Z,98129.75
2017-09-04T12:56:16.245Z,98129.71
2017-09-04T12:58:43.775Z,98130.59
2017-09-04T13:01:11.294Z,98130.80
2017-09-04T13:03:38.795Z,98133.11
2017-09-04T13:06:06.504Z,98132.44
2017-09-04T13:08:34.031Z,98134.05
2017-09-04T13:11:07.255Z,98136.14
2017-09-04T13:13:40.313Z,98128.73
2017-09-04T13:16:13.387Z,98123.93
2017-09-04T13:18:46.624Z,98122.90
2017-09-04T13:21:19.922Z,98119.69
2017-09-04T13:23:53.206Z,98118.67
2017-09-04T13:29:29.924Z,98114.41
2017-09-04T13:32:03.187Z,98114.91
2017-09-04T13:34:36.380Z,98114.67
2017-09-04T13:37:16.468Z,98117.80
2017-09-04T13:39:49.661Z,98113.83
2017-09-04T13:42:22.766Z,98109.04
2017-09-04T13:44:55.884Z,98109.54
2017-09-04T13:50:44.190Z,98108.95
2017-09-04T13:56:45.615Z,98109.42
2017-09-04T13:59:26.124Z,98117.86
2017-09-04T14:02:02.164Z,98123.98
2017-09-04T14:04:31.650Z,98120.14
2017-09-04T14:06:59.691Z,98121.70
2017-09-04T14:09:32.935Z,98121.38
2017-09-04T14:12:06.065Z,98132.55
2017-09-04T14:14:36.643Z,98134.67
2017-09-04T14:20:05.124Z,98120.78
2017-09-04T14:22:32.646Z,98122.62
2017-09-04T14:25:00.202Z,98123.50
2017-09-04T14:27:27.741Z,98128.23
2017-09-04T14:29:55.263Z,98125.09
2017-09-04T14:32:22.805Z,98130.33
2017-09-04T14:34:50.327Z,98129.91
2017-09-04T14:37:17.864Z,98128.20
2017-09-04T14:39:45.391Z,98124.57
2017-09-04T14:42:12.910Z,98128.16
2017-09-04T14:44:40.437Z,98132.33
2017-09-04T14:47:08.455Z,98121.31
2017-09-04T14:49:35.985Z,98116.09
2017-09-04T14:52:03.488Z,98123.35
2017-09-04T14:54:31.037Z,98128.48
2017-09-04T14:56:58.554Z,98119.91
2017-09-04T14:59:26.092Z,98126.77
2017-09-04T15:01:53.731Z,98131.32
2017-09-04T15:04:21.251Z,98127.95
2017-09-04T15:06:48.755Z,98126.63
2017-09-04T15:09:16.288Z,98129.77
2017-09-04T15:11:43.860Z,98122.09
2017-09-04T15:14:11.390Z,98129.52
2017-09-04T15:16:38.951Z,98132.77
2017-09-04T15:19:06.523Z,98139.47
2017-09-04T15:21:34.046Z,98139.60
2017-09-04T15:24:01.668Z,98141.67
2017-09-04T15:26:29.223Z,98143.91
2017-09-04T15:28:56.735Z,98142.89
2017-09-04T15:31:24.258Z,98139.22
2017-09-04T15:33:51.772Z,98141.20
2017-09-04T15:36:19.276Z,98139.63
2017-09-04T15:38:46.791Z,98140.98
2017-09-04T15:41:14.305Z,98155.10
2017-09-04T15:43:41.823Z,98155.41
2017-09-04T15:46:09.352Z,98161.42
2017-09-04T15:48:36.869Z,98160.66
2017-09-04T15:51:04.402Z,98160.31
2017-09-04T15:53:31.911Z,98158.57
2017-09-04T15:55:59.415Z,98163.67
2017-09-04T15:58:26.946Z,98161.87
2017-09-04T16:00:54.481Z,98160.30
2017-09-04T16:03:22.060Z,98155.73
2017-09-04T16:05:57.144Z,98164.11
2017-09-04T16:08:27.306Z,98159.86
2017-09-04T16:10:54.864Z,98167.41
2017-09-04T16:13:22.905Z,98172.73
2017-09-04T16:16:06.100Z,98169.18
2017-09-04T16:18:35.063Z,98175.67
2017-09-04T16:21:06.099Z,98180.63
2017-09-04T16:23:43.858Z,98178.19
2017-09-04T16:26:11.819Z,98173.94
2017-09-04T16:28:49.271Z,98178.16
2017-09-04T16:31:22.273Z,98174.38
2017-09-04T16:37:14.466Z,98184.27
2017-09-04T16:39:47.415Z,98180.77
2017-09-04T16:42:20.496Z,98186.13
2017-09-04T16:44:50.456Z,98185.95
2017-09-04T16:47:23.923Z,98184.39
2017-09-04T16:52:58.000Z,98189.95
2017-09-04T16:55:26.301Z,98192.48
2017-09-04T16:58:03.870Z,98197.23
2017-09-04T17:00:31.471Z,98192.70
2017-09-04T17:02:59.019Z,98193.77
2017-09-04T17:05:26.542Z,98188.66
2017-09-04T17:07:54.053Z,98194.91
2017-09-04T17:10:23.541Z,98193.03
2017-09-04T17:12:51.079Z,98193.86
2017-09-04T17:15:18.613Z,98198.71
2017-09-04T17:17:47.695Z,98193.46
2017-09-04T17:23:20.328Z,98192.23
2017-09-04T17:25:47.887Z,98186.61
2017-09-04T17:28:15.407Z,98194.45
2017-09-04T17:30:42.931Z,98194.91
2017-09-04T17:33:10.437Z,98194.96
2017-09-04T17:35:37.957Z,98194.74
2017-09-04T17:38:05.606Z,98202.52
2017-09-04T17:40:33.138Z,98209.87
2017-09-04T17:43:00.637Z,98212.84
2017-09-04T17:45:28.163Z,98210.70
2017-09-04T17:47:55.675Z,98222.61
2017-09-04T17:50:23.194Z,98230.52
2017-09-04T17:52:50.726Z,98233.25
2017-09-04T17:55:18.268Z,98229.98
2017-09-04T17:57:45.807Z,98237.06
2017-09-04T18:00:13.392Z,98236.05
2017-09-04T18:02:40.912Z,98242.84
2017-09-04T18:05:08.457Z,98243.17
2017-09-04T18:07:35.959Z,98244.45
2017-09-04T18:10:03.504Z,98246.86
2017-09-04T18:12:31.063Z,98259.95
2017-09-04T18:14:58.599Z,98264.10
2017-09-04T18:17:26.113Z,98266.30
2017-09-04T18:19:53.640Z,98270.42
2017-09-04T18:22:21.241Z,98273.99
2017-09-04T18:24:48.755Z,98275.53
2017-09-04T18:27:16.299Z,98275.42
2017-09-04T18:29:43.823Z,98277.56
2017-09-04T18:32:11.358Z,98278.70
2017-09-04T18:34:38.907Z,98283.64
2017-09-04T18:37:06.436Z,98282.53
2017-09-04T18:39:33.952Z,98289.28
2017-09-04T18:42:01.467Z,98281.99
2017-09-04T18:44:29.031Z,98287.66
2017-09-04T18:46:56.574Z,98290.59
2017-09-04T18:49:24.143Z,98302.55
2017-09-04T18:51:53.339Z,98310.95
2017-09-04T18:54:20.901Z,98311.48
2017-09-04T18:56:48.428Z,98312.84
2017-09-04T18:59:15.938Z,98319.98
2017-09-04T19:01:43.451Z,98324.27
2017-09-04T19:04:11.344Z,98323.58
2017-09-04T19:06:38.871Z,98319.77
2017-09-04T19:09:06.381Z,98329.50
2017-09-04T19:11:33.936Z,98328.52
2017-09-04T19:14:01.469Z,98334.84
2017-09-04T19:16:29.030Z,98340.48
2017-09-04T19:18:56.564Z,98340.73
2017-09-04T19:21:24.088Z,98339.46
2017-09-04T19:23:51.609Z,98347.68
2017-09-04T19:26:19.142Z,98344.92
2017-09-04T19:28:46.659Z,98349.31
2017-09-04T19:31:14.212Z,98350.75
2017-09-04T19:33:41.757Z,98355.23
2017-09-04T19:36:09.288Z,98350.79
2017-09-04T19:38:36.804Z,98349.27
2017-09-04T19:41:04.379Z,98344.16
2017-09-04T19:43:31.914Z,98350.85
2017-09-04T19:45:59.446Z,98343.97
2017-09-04T19:48:26.950Z,98341.18
2017-09-04T19:50:54.471Z,98332.09
2017-09-04T19:53:21.981Z,98334.30
2017-09-04T19:55:49.492Z,98330.39
2017-09-04T19:58:17.015Z,98335.59
2017-09-04T20:00:44.550Z,98340.44
2017-09-04T20:03:12.093Z,98348.89
2017-09-04T20:05:41.641Z,98354.55
2017-09-04T20:08:09.226Z,98362.73
2017-09-04T20:10:36.815Z,98362.27
2017-09-04T20:13:04.327Z,98362.76
2017-09-04T20:15:31.831Z,98365.27
2017-09-04T20:17:59.364Z,98366.30
2017-09-04T20:20:26.909Z,98363.77
2017-09-04T20:22:54.442Z,98371.08
2017-09-04T20:25:22.005Z,98368.98
2017-09-04T20:27:49.518Z,98371.15
2017-09-04T20:30:17.060Z,98379.47
2017-09-04T20:32:44.571Z,98389.16
2017-09-04T20:35:12.072Z,98387.72
2017-09-04T20:37:39.603Z,98390.75
2017-09-04T20:40:07.150Z,98384.05
2017-09-04T20:42:34.680Z,98392.67
2017-09-04T20:45:02.200Z,98395.38
2017-09-04T20:47:29.728Z,98400.84
2017-09-04T20:49:57.255Z,98395.36
2017-09-04T20:52:24.789Z,98395.03
2017-09-04T20:54:52.305Z,98388.52
2017-09-04T20:57:19.827Z,98386.23
2017-09-04T20:59:47.342Z,98391.78
2017-09-04T21:02:14.986Z,98391.36
2017-09-04T21:04:42.542Z,98392.06
2017-09-04T21:07:10.054Z,98391.33
2017-09-04T21:09:37.584Z,98391.20
2017-09-04T21:12:05.150Z,98394.84
2017-09-04T21:14:32.679Z,98393.33
2017-09-04T21:17:00.226Z,98395.80
2017-09-04T21:19:27.733Z,98398.94
2017-09-04T21:21:55.277Z,98397.14
2017-09-04T21:24:22.799Z,98395.84
2017-09-04T21:26:50.314Z,98399.59
2017-09-04T21:29:17.885Z,98409.16
2017-09-04T21:31:45.401Z,98409.38
2017-09-04T21:34:12.918Z,98408.75
2017-09-04T21:36:40.471Z,98400.16
2017-09-04T21:39:08.052Z,98399.77
2017-09-04T21:41:35.576Z,98405.69
2017-09-04T21:44:03.091Z,98400.89
2017-09-04T21:46:30.624Z,98406.17
2017-09-04T21:48:58.135Z,98410.74
2017-09-04T21:51:25.667Z,98408.47
2017-09-04T21:53:53.219Z,98410.66
2017-09-04T21:56:20.747Z,98412.91
2017-09-04T21:58:48.243Z,98415.29
2017-09-04T22:01:15.756Z,98414.33
2017-09-04T22:03:43.290Z,98404.41
2017-09-04T22:06:10.811Z,98408.42
2017-09-04T22:08:38.326Z,98404.27
2017-09-04T22:11:05.842Z,98409.38
2017-09-04T22:13:33.357Z,98407.69
2017-09-04T22:16:00.897Z,98407.62
2017-09-04T22:18:28.435Z,98410.52
2017-09-04T22:20:55.945Z,98406.80
2017-09-04T22:23:23.470Z,98405.84
2017-09-04T22:25:50.978Z,98409.94
2017-09-04T22:28:18.502Z,98411.22
2017-09-04T22:30:46.019Z,98405.69
2017-09-04T22:33:13.526Z,98414.83
2017-09-04T22:35:41.049Z,98411.53
2017-09-04T22:38:08.578Z,98420.12
2017-09-04T22:40:36.111Z,98420.53
2017-09-04T22:43:03.628Z,98423.89
2017-09-04T22:45:31.144Z,98427.23
2017-09-04T22:47:58.663Z,98422.13
2017-09-04T22:50:26.196Z,98433.83
2017-09-04T22:52:53.736Z,98426.95
2017-09-04T22:55:21.251Z,98427.27
2017-09-04T22:57:48.772Z,98423.80
2017-09-04T23:00:16.296Z,98421.91
2017-09-04T23:02:43.802Z,98427.66
2017-09-04T23:05:11.333Z,98429.71
2017-09-04T23:07:38.867Z,98428.12
2017-09-04T23:10:06.373Z,98429.70
2017-09-04T23:12:33.902Z,98440.75
2017-09-04T23:15:01.403Z,98437.63
2017-09-04T23:17:28.912Z,98437.86
2017-09-04T23:19:56.440Z,98435.36
2017-09-04T23:22:23.962Z,98437.73
2017-09-04T23:24:51.475Z,98430.89
2017-09-04T23:27:18.983Z,98438.20
2017-09-04T23:29:46.497Z,98431.80
2017-09-04T23:32:14.060Z,98431.09
2017-09-04T23:34:41.571Z,98428.37
2017-09-04T23:37:09.081Z,98431.03
2017-09-04T23:39:36.598Z,98443.03
2017-09-04T23:42:04.160Z,98442.98
2017-09-04T23:44:31.662Z,98444.25
2017-09-04T23:46:59.186Z,98447.59
2017-09-04T23:49:26.699Z,98444.18
2017-09-04T23:51:54.264Z,98444.26
2017-09-04T23:54:21.782Z,98454.17
2017-09-04T23:56:49.292Z,98448.37
2017-09-04T23:59:16.824Z,98450.53
